Time;durP1;ratioP1;P1;durP2;ratioP2;P2;SDS_P1;SDS_P2;PMS_P1;PMS_P2;Temp;Humidity;BMP_temperature;BMP_pressure;BME280_temperature;BME280_humidity;BME280_pressure;Samples;Min_cycle;Max_cycle;Signal;HPM_P1;HPM_P2
2023/10/04 00:01:15;;;;;;;0.00;0.00;;;14.40;99.90;;;;;;5009244;28;20046;-64
2023/10/04 00:03:40;;;;;;;0.10;0.10;;;14.30;99.90;;;;;;5009312;28;20049;-64
2023/10/04 00:06:07;;;;;;;0.10;0.10;;;14.30;99.90;;;;;;5001060;28;20136;-64
2023/10/04 00:08:33;;;;;;;0.28;0.28;;;14.40;99.90;;;;;;5010057;28;20121;-64
2023/10/04 00:11:01;;;;;;;8.77;0.40;;;14.40;99.90;;;;;;5012564;28;20463;-64
2023/10/04 00:13:27;;;;;;;1.38;0.63;;;14.40;99.90;;;;;;5000316;28;20370;-64
2023/10/04 00:15:52;;;;;;;0.05;0.05;;;14.40;99.90;;;;;;5000326;28;20050;-64
2023/10/04 00:18:18;;;;;;;0.10;0.10;;;14.40;99.90;;;;;;5002844;28;20634;-64
2023/10/04 00:20:43;;;;;;;0.00;0.00;;;14.40;99.90;;;;;;5003303;28;20038;-64
2023/10/04 00:23:09;;;;;;;0.65;0.65;;;14.40;99.90;;;;;;5006983;28;20060;-64
2023/10/04 00:25:35;;;;;;;0.05;0.05;;;14.40;99.90;;;;;;5009774;28;20061;-64
2023/10/04 00:28:02;;;;;;;4.47;0.40;;;14.40;99.90;;;;;;5007651;28;20046;-64
2023/10/04 00:30:32;;;;;;;0.00;0.00;;;14.40;99.90;;;;;;5001832;28;20129;-64
2023/10/04 00:32:59;;;;;;;0.63;0.63;;;14.30;99.90;;;;;;5010210;28;20038;-64
2023/10/04 00:35:25;;;;;;;0.20;0.20;;;14.40;99.90;;;;;;4997066;28;20069;-64
2023/10/04 00:37:55;;;;;;;0.08;0.08;;;14.40;99.90;;;;;;5008226;28;20054;-64
2023/10/04 00:40:30;;;;;;;0.75;0.57;;;14.40;99.90;;;;;;5001865;28;20042;-64
2023/10/04 00:42:58;;;;;;;0.70;0.55;;;14.40;99.90;;;;;;5010693;28;20053;-64
2023/10/04 00:45:24;;;;;;;0.00;0.00;;;14.30;99.90;;;;;;4998023;28;20490;-64
2023/10/04 00:47:57;;;;;;;0.10;0.10;;;14.40;99.90;;;;;;5001383;28;20103;-64
2023/10/04 00:50:34;;;;;;;0.65;0.65;;;14.40;99.90;;;;;;5003895;28;20050;-64
2023/10/04 00:53:16;;;;;;;0.00;0.00;;;14.40;99.90;;;;;;5003046;28;20057;-64
2023/10/04 00:55:46;;;;;;;1.35;0.57;;;14.40;99.90;;;;;;5007370;28;20099;-64
2023/10/04 00:58:14;;;;;;;0.10;0.10;;;14.40;99.90;;;;;;5010010;28;20069;-64
2023/10/04 01:00:43;;;;;;;0.20;0.20;;;14.40;99.90;;;;;;5009531;28;20176;-64
2023/10/04 01:03:09;;;;;;;0.10;0.10;;;14.40;99.90;;;;;;5004589;28;20058;-64
2023/10/04 01:05:47;;;;;;;0.05;0.05;;;14.50;99.90;;;;;;5008819;28;20067;-64
2023/10/04 01:08:20;;;;;;;0.22;0.22;;;14.40;99.90;;;;;;5002005;28;20569;-63
2023/10/04 01:10:53;;;;;;;0.08;0.08;;;14.40;99.90;;;;;;5004955;28;20040;-64
2023/10/04 01:13:22;;;;;;;0.00;0.00;;;14.40;99.90;;;;;;5003822;28;20057;-64
2023/10/04 01:15:59;;;;;;;0.08;0.08;;;14.40;99.90;;;;;;5002510;28;20053;-64
2023/10/04 01:18:28;;;;;;;0.00;0.00;;;14.40;99.90;;;;;;5002668;28;20049;-64
2023/10/04 01:20:55;;;;;;;0.45;0.45;;;14.40;99.90;;;;;;5001497;28;20046;-64
2023/10/04 01:23:21;;;;;;;14.32;0.73;;;14.40;99.90;;;;;;5001449;28;20045;-64
2023/10/04 01:25:47;;;;;;;0.00;0.00;;;14.40;99.90;;;;;;5009178;28;20092;-64
2023/10/04 01:28:26;;;;;;;0.63;0.43;;;14.40;99.90;;;;;;4998987;28;20046;-64
2023/10/04 01:30:53;;;;;;;0.00;0.00;;;14.40;99.90;;;;;;5004346;28;20137;-64
2023/10/04 01:33:19;;;;;;;0.00;0.00;;;14.40;99.90;;;;;;4994749;28;20042;-64
2023/10/04 01:35:50;;;;;;;0.00;0.00;;;14.40;99.90;;;;;;5006625;28;20048;-64
2023/10/04 01:38:16;;;;;;;0.43;0.43;;;14.40;99.90;;;;;;5009969;28;20041;-64
2023/10/04 01:40:47;;;;;;;5.07;0.30;;;14.30;99.90;;;;;;4995314;28;20046;-64
2023/10/04 01:43:16;;;;;;;0.00;0.00;;;14.30;99.90;;;;;;4993060;28;20041;-64
2023/10/04 01:45:46;;;;;;;0.98;0.90;;;14.30;99.90;;;;;;5005711;28;20690;-64
2023/10/04 01:48:15;;;;;;;0.00;0.00;;;14.30;99.90;;;;;;5004776;28;20121;-64
2023/10/04 01:50:41;;;;;;;0.85;0.85;;;14.20;99.90;;;;;;5006170;28;20042;-64
2023/10/04 01:53:06;;;;;;;0.00;0.00;;;14.20;99.90;;;;;;5006948;28;20045;-64
2023/10/04 01:55:32;;;;;;;0.00;0.00;;;14.20;99.90;;;;;;5002870;28;20391;-64
2023/10/04 01:57:58;;;;;;;0.00;0.00;;;14.20;99.90;;;;;;5001307;28;20042;-64
2023/10/04 02:00:28;;;;;;;0.00;0.00;;;14.30;99.90;;;;;;5006628;28;20042;-64
2023/10/04 02:02:56;;;;;;;0.15;0.15;;;14.20;99.90;;;;;;5009742;28;20041;-64
2023/10/04 02:05:28;;;;;;;0.00;0.00;;;14.20;99.90;;;;;;4993837;28;20405;-64
2023/10/04 02:07:56;;;;;;;0.17;0.17;;;14.20;99.90;;;;;;5006243;28;20506;-64
2023/10/04 02:10:22;;;;;;;0.10;0.10;;;14.20;99.90;;;;;;5012117;28;20506;-64
2023/10/04 02:12:50;;;;;;;1.45;1.10;;;14.20;99.90;;;;;;5001724;28;20120;-64
2023/10/04 02:15:17;;;;;;;0.00;0.00;;;14.10;99.90;;;;;;5007923;28;20118;-64
2023/10/04 02:17:46;;;;;;;0.05;0.05;;;14.20;99.90;;;;;;5000222;28;20434;-64
2023/10/04 02:20:20;;;;;;;0.10;0.10;;;14.20;99.90;;;;;;5004017;28;20067;-64
2023/10/04 02:22:47;;;;;;;0.35;0.35;;;14.20;99.90;;;;;;5002549;28;20042;-64
2023/10/04 02:25:13;;;;;;;0.10;0.10;;;14.20;99.90;;;;;;5005572;28;20034;-64
2023/10/04 02:27:42;;;;;;;0.10;0.10;;;14.20;99.90;;;;;;5002194;28;20077;-64
2023/10/04 02:30:26;;;;;;;0.10;0.10;;;14.10;99.90;;;;;;5006364;28;20176;-64
2023/10/04 02:32:53;;;;;;;0.10;0.10;;;14.10;99.90;;;;;;5002017;28;20058;-64
2023/10/04 02:35:34;;;;;;;0.10;0.10;;;14.10;99.90;;;;;;4996695;28;20541;-64
2023/10/04 02:38:00;;;;;;;0.25;0.25;;;14.20;99.90;;;;;;5005817;28;20077;-64
2023/10/04 02:40:32;;;;;;;0.10;0.10;;;14.20;99.90;;;;;;5001579;28;20125;-64
2023/10/04 02:42:58;;;;;;;0.15;0.15;;;14.30;99.90;;;;;;5007941;28;20564;-63
2023/10/04 02:45:29;;;;;;;0.10;0.10;;;14.20;99.90;;;;;;5005635;28;20046;-64
2023/10/04 02:47:55;;;;;;;0.00;0.00;;;14.20;99.90;;;;;;5005850;28;20050;-64
2023/10/04 02:50:23;;;;;;;0.00;0.00;;;14.20;99.90;;;;;;5002249;28;20061;-64
2023/10/04 02:52:52;;;;;;;0.00;0.00;;;14.20;99.90;;;;;;5001922;28;20073;-64
2023/10/04 02:55:19;;;;;;;0.00;0.00;;;14.20;99.90;;;;;;5005463;28;20410;-64
2023/10/04 02:57:55;;;;;;;0.00;0.00;;;14.10;99.90;;;;;;5006247;28;20038;-64
2023/10/04 03:00:21;;;;;;;1.65;1.55;;;14.20;99.90;;;;;;5000097;28;20421;-64
2023/10/04 03:02:50;;;;;;;0.00;0.00;;;14.10;99.90;;;;;;4998986;28;20853;-64
2023/10/04 03:05:18;;;;;;;0.10;0.10;;;14.10;99.90;;;;;;5003273;28;20130;-64
2023/10/04 03:07:47;;;;;;;0.00;0.00;;;14.10;99.90;;;;;;4998902;28;20054;-64
2023/10/04 03:10:14;;;;;;;0.00;0.00;;;14.10;99.90;;;;;;5004306;28;20099;-64
2023/10/04 03:12:41;;;;;;;0.08;0.08;;;14.10;99.90;;;;;;5003109;28;20552;-64
2023/10/04 03:15:07;;;;;;;2.25;1.17;;;14.10;99.90;;;;;;5002746;28;20049;-64
2023/10/04 03:17:33;;;;;;;2.20;1.13;;;14.10;99.90;;;;;;4999748;28;20042;-64
2023/10/04 03:20:00;;;;;;;0.47;0.17;;;14.10;99.90;;;;;;5004097;28;20057;-64
2023/10/04 03:22:26;;;;;;;0.05;0.05;;;14.10;99.90;;;;;;5003974;28;20053;-64
2023/10/04 03:24:53;;;;;;;0.47;0.47;;;14.10;99.90;;;;;;4999515;28;20599;-64
2023/10/04 03:27:23;;;;;;;0.15;0.15;;;14.10;99.90;;;;;;5009723;28;20056;-64
2023/10/04 03:29:48;;;;;;;0.00;0.00;;;14.10;99.90;;;;;;5008668;28;20889;-64
2023/10/04 03:32:15;;;;;;;0.47;0.32;;;14.20;99.90;;;;;;5001304;28;20053;-64
2023/10/04 03:34:41;;;;;;;0.28;0.28;;;14.20;99.90;;;;;;5002164;28;20120;-64
2023/10/04 03:37:13;;;;;;;1.23;0.70;;;14.20;99.90;;;;;;5002050;28;20495;-64
2023/10/04 03:39:39;;;;;;;0.15;0.15;;;14.30;99.90;;;;;;5008224;28;20119;-64
2023/10/04 03:42:05;;;;;;;0.82;0.65;;;14.30;99.90;;;;;;5000788;28;20102;-64
2023/10/04 03:44:31;;;;;;;0.40;0.40;;;14.20;99.90;;;;;;5003929;28;20060;-64
2023/10/04 03:46:57;;;;;;;0.25;0.25;;;14.20;99.90;;;;;;5007229;28;20037;-64
2023/10/04 03:49:26;;;;;;;2.05;1.65;;;14.30;99.90;;;;;;5007604;28;20412;-64
2023/10/04 03:51:53;;;;;;;0.10;0.10;;;14.20;99.90;;;;;;4996573;28;20105;-64
2023/10/04 03:54:19;;;;;;;0.00;0.00;;;14.20;99.90;;;;;;5007290;28;20073;-64
2023/10/04 03:56:45;;;;;;;0.10;0.10;;;14.20;99.90;;;;;;5002804;28;20162;-64
2023/10/04 03:59:11;;;;;;;0.10;0.10;;;14.20;99.90;;;;;;5009933;28;20058;-64
2023/10/04 04:01:37;;;;;;;0.00;0.00;;;14.20;99.90;;;;;;5005895;28;20050;-64
2023/10/04 04:04:04;;;;;;;0.10;0.10;;;14.20;99.90;;;;;;5002148;28;20109;-64
2023/10/04 04:06:30;;;;;;;0.08;0.08;;;14.20;99.90;;;;;;5011569;28;20064;-64
2023/10/04 04:08:58;;;;;;;0.00;0.00;;;14.20;99.90;;;;;;5009328;28;20077;-64
2023/10/04 04:11:24;;;;;;;0.00;0.00;;;14.20;99.90;;;;;;4999948;28;20056;-64
2023/10/04 04:13:49;;;;;;;0.10;0.10;;;14.20;99.90;;;;;;5016578;28;20289;-64
2023/10/04 04:16:19;;;;;;;0.10;0.10;;;14.20;99.90;;;;;;5000730;28;20042;-64
2023/10/04 04:18:47;;;;;;;0.30;0.30;;;14.20;99.90;;;;;;5005420;28;20445;-64
2023/10/04 04:21:14;;;;;;;0.00;0.00;;;14.10;99.90;;;;;;5001942;28;20068;-64
2023/10/04 04:23:40;;;;;;;0.10;0.10;;;14.10;99.90;;;;;;5018959;28;20057;-64
2023/10/04 04:26:07;;;;;;;0.20;0.20;;;14.10;99.90;;;;;;5009756;28;20052;-64
2023/10/04 04:28:37;;;;;;;1.30;1.20;;;14.10;99.90;;;;;;5000434;28;20101;-64
2023/10/04 04:31:14;;;;;;;0.40;0.40;;;14.00;99.90;;;;;;5003769;28;20054;-64
2023/10/04 04:33:41;;;;;;;0.20;0.20;;;14.00;99.90;;;;;;5003592;28;20042;-64
2023/10/04 04:36:17;;;;;;;0.00;0.00;;;14.00;99.90;;;;;;5006943;28;20090;-64
2023/10/04 04:38:44;;;;;;;0.10;0.10;;;14.00;99.90;;;;;;5009499;28;20482;-64
2023/10/04 04:41:13;;;;;;;0.15;0.15;;;14.00;99.90;;;;;;5001374;28;20053;-64
2023/10/04 04:43:39;;;;;;;0.05;0.05;;;14.00;99.90;;;;;;5000940;28;20117;-64
2023/10/04 04:46:16;;;;;;;0.00;0.00;;;14.00;99.90;;;;;;5000321;28;20038;-64
2023/10/04 04:48:42;;;;;;;0.28;0.28;;;14.00;99.90;;;;;;5003174;28;20050;-64
2023/10/04 04:51:11;;;;;;;0.00;0.00;;;13.90;99.90;;;;;;5005920;28;20053;-65
2023/10/04 04:53:46;;;;;;;0.10;0.10;;;13.90;99.90;;;;;;5000074;28;20056;-64
2023/10/04 04:56:15;;;;;;;0.03;0.03;;;13.90;99.90;;;;;;5001927;28;20386;-64
2023/10/04 04:58:44;;;;;;;0.03;0.03;;;13.90;99.90;;;;;;4995918;28;20073;-64
2023/10/04 05:01:13;;;;;;;15.65;1.33;;;13.90;99.90;;;;;;5002296;28;20042;-64
2023/10/04 05:03:45;;;;;;;0.10;0.10;;;13.80;99.90;;;;;;5004709;28;20053;-64
2023/10/04 05:06:22;;;;;;;0.00;0.00;;;13.90;99.90;;;;;;5002710;28;20108;-64
2023/10/04 05:08:56;;;;;;;0.10;0.10;;;13.90;99.90;;;;;;4999196;28;20049;-64
2023/10/04 05:11:24;;;;;;;0.10;0.10;;;13.90;99.90;;;;;;4999472;28;20073;-64
2023/10/04 05:13:51;;;;;;;0.20;0.20;;;13.80;99.90;;;;;;4997899;28;20447;-64
2023/10/04 05:16:16;;;;;;;0.10;0.10;;;13.80;99.90;;;;;;4996453;28;20495;-64
2023/10/04 05:18:43;;;;;;;0.55;0.55;;;13.90;99.90;;;;;;4998865;28;20033;-64
2023/10/04 05:21:10;;;;;;;0.00;0.00;;;13.80;99.90;;;;;;4995051;28;20089;-64
2023/10/04 05:23:36;;;;;;;3.13;0.40;;;13.80;99.90;;;;;;4999411;28;20088;-64
2023/10/04 05:26:03;;;;;;;0.10;0.10;;;13.80;99.90;;;;;;4998081;28;20489;-64
2023/10/04 05:28:29;;;;;;;0.10;0.10;;;13.90;99.90;;;;;;4999403;28;20055;-64
2023/10/04 05:30:55;;;;;;;0.03;0.03;;;13.80;99.90;;;;;;5000481;28;20699;-64
2023/10/04 05:33:22;;;;;;;0.00;0.00;;;13.90;99.90;;;;;;4999798;28;20054;-64
2023/10/04 05:35:53;;;;;;;0.17;0.17;;;13.80;99.90;;;;;;5000325;28;20049;-64
2023/10/04 05:38:19;;;;;;;0.20;0.20;;;13.80;99.90;;;;;;5002327;28;20088;-64
2023/10/04 05:40:46;;;;;;;0.20;0.20;;;13.80;99.90;;;;;;5000532;28;20485;-64
2023/10/04 05:43:13;;;;;;;1.42;1.35;;;13.70;99.90;;;;;;5009692;28;20041;-64
2023/10/04 05:45:42;;;;;;;0.10;0.10;;;13.70;99.90;;;;;;5006476;28;20095;-64
2023/10/04 05:48:11;;;;;;;0.30;0.30;;;13.70;99.90;;;;;;5009911;28;20498;-64
2023/10/04 05:50:38;;;;;;;0.88;0.88;;;13.70;99.90;;;;;;4993270;28;20081;-64
2023/10/04 05:53:06;;;;;;;0.00;0.00;;;13.70;99.90;;;;;;5003277;28;20137;-64
2023/10/04 05:55:37;;;;;;;0.00;0.00;;;13.70;99.90;;;;;;5003831;28;20084;-64
2023/10/04 05:58:07;;;;;;;4.65;1.08;;;13.70;99.90;;;;;;4999485;28;20065;-64
2023/10/04 06:00:40;;;;;;;0.10;0.10;;;13.70;99.90;;;;;;5003945;28;20049;-64
2023/10/04 06:03:11;;;;;;;;;;;13.60;99.90;;;;;;4994753;28;20410;-64
2023/10/04 06:05:38;;;;;;;0.17;0.17;;;13.60;99.90;;;;;;5000147;28;19928;-64
2023/10/04 06:08:15;;;;;;;0.10;0.10;;;13.60;99.90;;;;;;4994015;28;20085;-64
2023/10/04 06:10:44;;;;;;;0.00;0.00;;;13.60;99.90;;;;;;4993226;28;20440;-64
2023/10/04 06:13:11;;;;;;;0.08;0.08;;;13.60;99.90;;;;;;5006136;28;20394;-65
2023/10/04 06:15:41;;;;;;;0.57;0.57;;;13.60;99.90;;;;;;5008379;28;20390;-64
2023/10/04 06:18:07;;;;;;;1.10;0.85;;;13.60;99.90;;;;;;4998202;28;20065;-64
2023/10/04 06:20:33;;;;;;;0.10;0.10;;;13.50;99.90;;;;;;5000418;28;20402;-64
2023/10/04 06:23:01;;;;;;;0.10;0.10;;;13.50;99.90;;;;;;5003524;28;20041;-64
2023/10/04 06:25:31;;;;;;;0.10;0.10;;;13.50;99.90;;;;;;5011609;28;20093;-64
2023/10/04 06:27:59;;;;;;;0.00;0.00;;;13.50;99.90;;;;;;5003256;28;20038;-64
2023/10/04 06:30:31;;;;;;;0.65;0.47;;;13.50;99.90;;;;;;5001344;28;20132;-64
2023/10/04 06:32:59;;;;;;;0.08;0.08;;;13.50;99.90;;;;;;5000183;28;20053;-64
2023/10/04 06:35:26;;;;;;;0.10;0.10;;;13.50;99.90;;;;;;4991903;28;20057;-64
2023/10/04 06:37:57;;;;;;;0.00;0.00;;;13.50;99.90;;;;;;5004730;28;20042;-65
2023/10/04 06:40:24;;;;;;;0.80;0.50;;;13.50;99.90;;;;;;4999215;28;20042;-65
2023/10/04 06:42:52;;;;;;;0.00;0.00;;;13.50;99.90;;;;;;5005565;28;20042;-65
2023/10/04 06:45:20;;;;;;;0.05;0.05;;;13.40;99.90;;;;;;5004701;28;20050;-64
2023/10/04 06:47:47;;;;;;;0.38;0.35;;;13.50;99.90;;;;;;5003015;28;20584;-64
2023/10/04 06:50:20;;;;;;;1.25;0.60;;;13.50;99.90;;;;;;5011652;28;20038;-64
2023/10/04 06:52:51;;;;;;;0.45;0.45;;;13.50;99.90;;;;;;5010318;28;20057;-64
2023/10/04 06:55:19;;;;;;;0.15;0.15;;;13.60;99.90;;;;;;5007210;28;20061;-64
2023/10/04 06:57:46;;;;;;;0.10;0.10;;;13.70;99.90;;;;;;5001097;28;20124;-64
2023/10/04 07:00:14;;;;;;;0.00;0.00;;;13.70;99.90;;;;;;5009527;28;20104;-64
2023/10/04 07:02:47;;;;;;;1.33;0.65;;;13.70;99.90;;;;;;5002554;28;20069;-64
2023/10/04 07:05:20;;;;;;;0.00;0.00;;;13.70;99.90;;;;;;4997055;28;20100;-64
2023/10/04 07:07:47;;;;;;;0.10;0.10;;;13.80;99.90;;;;;;5011008;28;20040;-64
2023/10/04 07:10:15;;;;;;;0.10;0.10;;;13.80;99.90;;;;;;5010014;28;20081;-64
2023/10/04 07:12:46;;;;;;;0.20;0.20;;;13.80;99.90;;;;;;5003983;28;20038;-64
2023/10/04 07:15:13;;;;;;;0.10;0.10;;;13.90;99.90;;;;;;5012173;28;20042;-64
2023/10/04 07:17:40;;;;;;;0.00;0.00;;;13.90;99.90;;;;;;5000667;28;20483;-64
2023/10/04 07:20:17;;;;;;;0.10;0.10;;;14.00;99.90;;;;;;5003481;28;20046;-64
2023/10/04 07:22:48;;;;;;;0.75;0.75;;;14.00;99.90;;;;;;5012359;28;20084;-64
2023/10/04 07:25:14;;;;;;;0.08;0.08;;;14.10;99.90;;;;;;5008401;28;20092;-64
2023/10/04 07:27:43;;;;;;;0.10;0.10;;;14.20;99.90;;;;;;5004872;28;20425;-65
2023/10/04 07:30:13;;;;;;;0.05;0.05;;;14.20;99.90;;;;;;5004992;28;20490;-64
2023/10/04 07:32:46;;;;;;;0.75;0.63;;;14.20;99.90;;;;;;5008296;28;20121;-64
2023/10/04 07:35:16;;;;;;;0.00;0.00;;;14.30;99.90;;;;;;5002813;28;20174;-64
2023/10/04 07:37:42;;;;;;;1.50;0.40;;;14.40;99.90;;;;;;5007167;28;20060;-64
2023/10/04 07:40:09;;;;;;;0.15;0.13;;;14.50;99.90;;;;;;5008799;28;20042;-64
2023/10/04 07:42:37;;;;;;;0.00;0.00;;;14.60;99.90;;;;;;5001685;28;20081;-64
2023/10/04 07:45:03;;;;;;;0.43;0.43;;;14.70;99.90;;;;;;5004485;28;20046;-64
2023/10/04 07:47:29;;;;;;;0.47;0.47;;;14.80;99.90;;;;;;5000081;28;20046;-64
2023/10/04 07:49:54;;;;;;;0.73;0.73;;;14.80;99.90;;;;;;5005612;28;20092;-64
2023/10/04 07:52:20;;;;;;;0.30;0.30;;;14.90;99.90;;;;;;4997710;28;20052;-64
2023/10/04 07:54:46;;;;;;;0.50;0.50;;;14.90;99.90;;;;;;5001168;28;20402;-64
2023/10/04 07:57:11;;;;;;;1.27;0.90;;;15.00;99.90;;;;;;5007054;28;20049;-64
2023/10/04 07:59:37;;;;;;;0.93;0.93;;;15.00;99.90;;;;;;5011166;28;20091;-64
2023/10/04 08:02:03;;;;;;;0.17;0.17;;;15.10;99.90;;;;;;4997003;28;20103;-64
2023/10/04 08:04:29;;;;;;;1.73;0.73;;;15.10;99.90;;;;;;5005314;28;20038;-64
2023/10/04 08:06:55;;;;;;;0.30;0.30;;;15.20;99.90;;;;;;5006346;28;20034;-64
2023/10/04 08:09:21;;;;;;;2.63;0.55;;;15.20;99.90;;;;;;5008033;28;20890;-64
2023/10/04 08:11:48;;;;;;;0.00;0.00;;;15.30;99.90;;;;;;5004008;28;20058;-64
2023/10/04 08:14:14;;;;;;;0.17;0.17;;;15.30;99.90;;;;;;4999284;28;20041;-64
2023/10/04 08:16:40;;;;;;;0.20;0.20;;;15.30;99.90;;;;;;5007738;28;20049;-64
2023/10/04 08:19:05;;;;;;;0.30;0.30;;;15.40;99.90;;;;;;5003435;28;20395;-64
2023/10/04 08:21:31;;;;;;;2.08;1.45;;;15.40;99.90;;;;;;5000871;28;20045;-64
2023/10/04 08:24:00;;;;;;;0.57;0.57;;;15.50;99.90;;;;;;5011755;28;20100;-64
2023/10/04 08:26:26;;;;;;;0.30;0.30;;;15.50;99.90;;;;;;4999542;28;20060;-64
2023/10/04 08:28:53;;;;;;;0.30;0.30;;;15.50;99.90;;;;;;5006311;28;20505;-64
2023/10/04 08:31:19;;;;;;;0.28;0.28;;;15.60;99.90;;;;;;5009483;28;20053;-64
2023/10/04 08:33:45;;;;;;;0.10;0.10;;;15.60;99.90;;;;;;5000102;28;20084;-64
2023/10/04 08:36:15;;;;;;;0.20;0.20;;;15.70;99.90;;;;;;5000095;28;20135;-64
2023/10/04 08:38:42;;;;;;;0.17;0.17;;;15.70;99.90;;;;;;5004038;28;20405;-64
2023/10/04 08:41:08;;;;;;;1.35;1.25;;;15.80;99.90;;;;;;5007438;28;20037;-64
2023/10/04 08:43:34;;;;;;;6.10;1.55;;;15.80;99.90;;;;;;4996537;28;20077;-64
2023/10/04 08:46:02;;;;;;;0.05;0.05;;;15.90;99.90;;;;;;5008254;28;20042;-64
2023/10/04 08:48:29;;;;;;;0.30;0.30;;;16.00;99.90;;;;;;5009996;28;20128;-64
2023/10/04 08:51:21;;;;;;;0.10;0.10;;;16.00;99.90;;;;;;5003710;28;20433;-64
2023/10/04 08:54:10;;;;;;;0.68;0.68;;;16.10;99.90;;;;;;5009641;28;20136;-64
2023/10/04 08:56:57;;;;;;;0.13;0.13;;;16.10;99.90;;;;;;5009969;28;20041;-64
2023/10/04 08:59:24;;;;;;;6.53;1.60;;;16.10;99.90;;;;;;5006281;28;20453;-64
2023/10/04 09:01:51;;;;;;;0.03;0.03;;;16.10;99.90;;;;;;4996555;28;20132;-64
2023/10/04 09:04:20;;;;;;;0.30;0.30;;;16.10;99.90;;;;;;5003591;28;20056;-64
2023/10/04 09:06:51;;;;;;;0.10;0.10;;;16.20;99.90;;;;;;4996861;28;20055;-64
2023/10/04 09:09:18;;;;;;;0.32;0.30;;;16.20;99.90;;;;;;5007960;28;20549;-64
2023/10/04 09:11:45;;;;;;;0.10;0.10;;;16.40;99.90;;;;;;5007762;28;20394;-64
2023/10/04 09:14:17;;;;;;;0.45;0.45;;;16.70;99.90;;;;;;4999989;28;20046;-64
2023/10/04 09:16:43;;;;;;;0.20;0.20;;;16.90;99.90;;;;;;5002447;28;20041;-64
2023/10/04 09:19:18;;;;;;;0.03;0.03;;;17.30;99.90;;;;;;5009973;28;20040;-64
2023/10/04 09:21:50;;;;;;;0.50;0.50;;;17.10;99.90;;;;;;5005249;28;20046;-64
2023/10/04 09:24:16;;;;;;;0.77;0.55;;;17.60;99.90;;;;;;5000786;28;20034;-64
2023/10/04 09:26:53;;;;;;;0.10;0.10;;;17.90;99.90;;;;;;5006359;28;20187;-63
2023/10/04 09:29:32;;;;;;;13.60;0.82;;;18.30;99.90;;;;;;5003808;28;20443;-64
2023/10/04 09:31:59;;;;;;;0.00;0.00;;;18.50;99.90;;;;;;5005878;28;20046;-64
2023/10/04 09:34:25;;;;;;;0.10;0.10;;;18.30;99.90;;;;;;5005931;28;20050;-64
2023/10/04 09:36:52;;;;;;;0.17;0.17;;;17.90;99.90;;;;;;5003136;28;20557;-64
2023/10/04 09:39:23;;;;;;;0.00;0.00;;;17.60;99.90;;;;;;5006064;28;20081;-64
2023/10/04 09:41:54;;;;;;;0.63;0.47;;;17.40;99.90;;;;;;5005649;28;20080;-65
2023/10/04 09:44:35;;;;;;;0.00;0.00;;;17.20;99.90;;;;;;5009422;28;20145;-64
2023/10/04 09:47:02;;;;;;;0.10;0.10;;;17.00;99.90;;;;;;5008440;28;20542;-64
2023/10/04 09:49:36;;;;;;;1.17;1.08;;;17.00;99.90;;;;;;5004252;28;20134;-64
2023/10/04 09:52:12;;;;;;;0.32;0.32;;;16.80;99.90;;;;;;4997375;28;20771;-64
2023/10/04 09:54:38;;;;;;;0.85;0.85;;;16.80;99.90;;;;;;5002955;28;20042;-64
2023/10/04 09:57:12;;;;;;;0.10;0.10;;;16.70;99.90;;;;;;5009371;28;20050;-64
2023/10/04 09:59:38;;;;;;;0.13;0.13;;;16.80;99.90;;;;;;5008786;28;20034;-64
2023/10/04 10:02:11;;;;;;;0.57;0.57;;;16.80;99.90;;;;;;4999948;28;20108;-64
2023/10/04 10:04:43;;;;;;;0.20;0.20;;;16.80;99.90;;;;;;5008353;28;20076;-64
2023/10/04 10:07:18;;;;;;;1.98;0.45;;;16.80;99.90;;;;;;5000811;28;20049;-64
2023/10/04 10:10:05;;;;;;;0.52;0.52;;;16.80;99.90;;;;;;4996782;28;20082;-64
2023/10/04 10:12:35;;;;;;;0.20;0.20;;;16.80;99.90;;;;;;4996486;28;20050;-65
2023/10/04 10:15:04;;;;;;;0.47;0.47;;;16.80;99.90;;;;;;5007773;28;20141;-64
2023/10/04 10:17:30;;;;;;;0.00;0.00;;;16.80;99.90;;;;;;4999656;28;20498;-64
2023/10/04 10:19:57;;;;;;;0.05;0.05;;;16.90;99.90;;;;;;5002614;28;20041;-64
2023/10/04 10:22:22;;;;;;;0.20;0.20;;;17.10;99.90;;;;;;5008955;28;20067;-64
2023/10/04 10:25:14;;;;;;;0.20;0.20;;;17.20;99.90;;;;;;4998936;28;20042;-64
2023/10/04 10:27:41;;;;;;;0.22;0.22;;;17.20;99.90;;;;;;5001064;28;20052;-65
2023/10/04 10:30:12;;;;;;;0.63;0.38;;;17.20;99.90;;;;;;5004777;28;20471;-65
2023/10/04 10:32:54;;;;;;;5.82;0.57;;;17.20;99.90;;;;;;5000066;28;20046;-64
2023/10/04 10:35:51;;;;;;;26.42;1.73;;;17.20;99.90;;;;;;5003911;28;20047;-64
2023/10/04 10:38:39;;;;;;;0.60;0.60;;;17.20;99.90;;;;;;5006956;28;21074;-64
2023/10/04 10:41:25;;;;;;;0.00;0.00;;;17.20;99.90;;;;;;5005128;28;20424;-64
2023/10/04 10:44:30;;;;;;;0.40;0.40;;;17.20;99.90;;;;;;4994029;28;20525;-65
2023/10/04 10:47:17;;;;;;;0.10;0.10;;;17.10;99.90;;;;;;5018034;28;20073;-65
2023/10/04 10:50:04;;;;;;;0.30;0.30;;;17.10;99.90;;;;;;4993221;28;20049;-64
2023/10/04 10:52:38;;;;;;;0.00;0.00;;;17.00;99.90;;;;;;5007108;28;20058;-64
2023/10/04 10:55:06;;;;;;;1.17;0.90;;;17.00;99.90;;;;;;5006645;28;20084;-64
2023/10/04 10:57:35;;;;;;;2.83;0.80;;;17.00;99.90;;;;;;4997866;28;20038;-65
2023/10/04 11:00:19;;;;;;;0.25;0.25;;;16.90;99.90;;;;;;5001027;28;20508;-65
2023/10/04 11:02:53;;;;;;;3.10;2.78;;;16.80;99.90;;;;;;4997256;28;20062;-64
2023/10/04 11:05:21;;;;;;;4.82;0.90;;;16.90;99.90;;;;;;5002223;28;20038;-65
2023/10/04 11:07:49;;;;;;;4.20;1.00;;;16.90;99.90;;;;;;5000160;28;20038;-64
2023/10/04 11:10:16;;;;;;;0.95;0.30;;;16.80;99.90;;;;;;4997486;28;20549;-64
2023/10/04 11:12:43;;;;;;;2.72;1.27;;;16.80;99.90;;;;;;5009278;28;20046;-64
2023/10/04 11:15:10;;;;;;;0.47;0.47;;;16.90;99.90;;;;;;5006416;28;20505;-64
2023/10/04 11:17:37;;;;;;;1.35;1.00;;;17.00;99.90;;;;;;4999462;28;20057;-64
2023/10/04 11:20:11;;;;;;;0.90;0.55;;;17.00;99.90;;;;;;5006869;28;20132;-64
2023/10/04 11:22:41;;;;;;;0.00;0.00;;;17.00;99.90;;;;;;5007492;28;20045;-64
2023/10/04 11:25:08;;;;;;;0.30;0.30;;;17.00;99.90;;;;;;5001486;28;20053;-65
2023/10/04 11:27:37;;;;;;;0.20;0.20;;;17.10;99.90;;;;;;5007522;28;20489;-64
2023/10/04 11:30:04;;;;;;;0.30;0.30;;;17.10;99.90;;;;;;5004048;28;20058;-65
2023/10/04 11:32:31;;;;;;;0.00;0.00;;;17.10;99.90;;;;;;4995185;28;20087;-64
2023/10/04 11:34:57;;;;;;;0.32;0.32;;;17.00;99.90;;;;;;5009468;28;20077;-64
2023/10/04 11:37:29;;;;;;;0.20;0.20;;;17.00;99.90;;;;;;5005337;28;20049;-64
2023/10/04 11:39:55;;;;;;;14.80;1.55;;;17.00;99.90;;;;;;5001897;28;20038;-65
2023/10/04 11:42:23;;;;;;;0.10;0.10;;;17.00;99.90;;;;;;5001601;28;20490;-65
2023/10/04 11:44:49;;;;;;;0.10;0.10;;;16.90;99.90;;;;;;5010667;28;20048;-65
2023/10/04 11:47:27;;;;;;;0.00;0.00;;;17.00;99.90;;;;;;5007522;28;20585;-65
2023/10/04 11:49:58;;;;;;;0.00;0.00;;;17.00;99.90;;;;;;5002139;28;20053;-64
2023/10/04 11:52:29;;;;;;;0.55;0.32;;;17.00;99.90;;;;;;5007082;28;20042;-64
2023/10/04 11:54:55;;;;;;;0.00;0.00;;;17.00;99.90;;;;;;4996136;28;20053;-65
2023/10/04 11:57:39;;;;;;;2.35;0.80;;;17.10;99.90;;;;;;5003577;28;20046;-64
2023/10/04 12:00:21;;;;;;;0.00;0.00;;;17.00;99.90;;;;;;5000043;28;20045;-64
2023/10/04 12:02:48;;;;;;;3.92;2.10;;;17.10;99.90;;;;;;5005092;28;20132;-64
2023/10/04 12:05:14;;;;;;;0.17;0.17;;;17.10;99.90;;;;;;5006252;28;20042;-65
2023/10/04 12:07:39;;;;;;;0.10;0.10;;;17.10;99.90;;;;;;5007642;28;20491;-64
2023/10/04 12:10:06;;;;;;;3.50;1.50;;;17.20;99.90;;;;;;4998055;28;20097;-64
2023/10/04 12:12:32;;;;;;;0.98;0.65;;;17.20;99.90;;;;;;5001010;28;20049;-65
2023/10/04 12:14:57;;;;;;;1.75;1.23;;;17.20;99.90;;;;;;5004784;28;20046;-64
2023/10/04 12:17:24;;;;;;;1.77;0.82;;;17.10;99.90;;;;;;4994744;28;20441;-64
2023/10/04 12:19:50;;;;;;;0.68;0.55;;;17.10;99.90;;;;;;5000057;28;20050;-65
2023/10/04 12:22:16;;;;;;;2.72;0.63;;;17.00;99.90;;;;;;5008894;28;20057;-64
2023/10/04 12:24:44;;;;;;;0.55;0.55;;;17.10;99.90;;;;;;5002736;28;20161;-65
2023/10/04 12:27:14;;;;;;;19.80;0.57;;;17.10;99.90;;;;;;5001097;28;20049;-64
2023/10/04 12:29:40;;;;;;;0.95;0.75;;;17.10;99.90;;;;;;5003708;28;20062;-65
2023/10/04 12:32:07;;;;;;;0.22;0.22;;;17.30;99.90;;;;;;4995552;28;20053;-64
2023/10/04 12:34:33;;;;;;;0.00;0.00;;;17.40;99.90;;;;;;5009939;28;20556;-64
2023/10/04 12:37:00;;;;;;;3.60;0.95;;;17.50;99.90;;;;;;5004749;28;20109;-65
2023/10/04 12:39:26;;;;;;;0.00;0.00;;;17.60;99.90;;;;;;5007143;28;20141;-65
2023/10/04 12:41:52;;;;;;;1.45;0.82;;;17.70;99.90;;;;;;5004068;28;20049;-64
2023/10/04 12:44:19;;;;;;;0.10;0.10;;;17.80;99.90;;;;;;5007569;28;20046;-64
2023/10/04 12:46:47;;;;;;;0.63;0.32;;;17.70;99.90;;;;;;5001703;28;20743;-65
2023/10/04 12:49:13;;;;;;;0.30;0.30;;;17.70;99.90;;;;;;5005508;28;20065;-65
2023/10/04 12:51:39;;;;;;;2.60;1.23;;;17.60;99.90;;;;;;5002618;28;20445;-65
2023/10/04 12:54:06;;;;;;;0.10;0.10;;;17.60;99.90;;;;;;5008133;28;20053;-65
2023/10/04 12:56:32;;;;;;;0.00;0.00;;;17.50;99.90;;;;;;5010109;28;20398;-65
2023/10/04 12:59:03;;;;;;;1.15;0.85;;;17.50;99.90;;;;;;4997936;28;20050;-64